Terminal Aerodrome Forecast
Issued by NWS

Home | Current Version | Previous Version | Text Only | Print | Product List | Glossary Off
Versions: 1 2 3 4 5 6 7 8 9 10 11 12 13

265
FTUS43 KICT 160333 AAA
TAFRSL
TAF AMD
KRSL 160333Z 1604/1624 05006KT 5SM -FZRA BR OVC003
      TEMPO 1605/1609 1 1/2SM FZRA BR OVC002
     FM161400 01013KT 3SM FZRA OVC003
     FM161900 34014KT 1SM -FZRA OVC003
     FM162100 33014KT P6SM OVC003=

USA.gov is the U.S. government's official web portal to all federal, state and local government web resources and services.